createdAt,value
2022-12-20T00:01:54.348Z,-0.54
2022-12-20T00:04:24.475Z,-0.51
2022-12-20T00:06:52.637Z,-0.54
2022-12-20T00:09:21.119Z,-0.48
2022-12-20T00:11:49.338Z,-0.32
2022-12-20T00:14:19.133Z,-0.37
2022-12-20T00:16:47.678Z,-0.38
2022-12-20T00:19:17.017Z,-0.40
2022-12-20T00:21:48.607Z,-0.44
2022-12-20T00:24:22.212Z,-0.39
2022-12-20T00:26:54.142Z,-0.40
2022-12-20T00:29:22.839Z,-0.34
2022-12-20T00:31:51.266Z,-0.42
2022-12-20T00:34:20.326Z,-0.48
2022-12-20T00:36:50.855Z,-0.61
2022-12-20T00:39:19.368Z,-0.63
2022-12-20T00:41:47.709Z,-0.62
2022-12-20T00:44:15.968Z,-0.67
2022-12-20T00:46:44.470Z,-0.52
2022-12-20T00:49:13.136Z,-0.49
2022-12-20T00:51:41.869Z,-0.56
2022-12-20T00:54:12.001Z,-0.52
2022-12-20T00:56:40.740Z,-0.46
2022-12-20T00:59:08.975Z,-0.65
2022-12-20T01:01:38.050Z,-0.46
2022-12-20T01:04:06.635Z,-0.52
2022-12-20T01:06:35.146Z,-0.50
2022-12-20T01:09:04.507Z,-0.52
2022-12-20T01:11:36.196Z,-0.43
2022-12-20T01:14:07.401Z,-0.36
2022-12-20T01:16:38.549Z,-0.37
2022-12-20T01:19:07.579Z,-0.36
2022-12-20T01:21:36.061Z,-0.48
2022-12-20T01:24:04.482Z,-0.32
2022-12-20T01:26:34.054Z,-0.32
2022-12-20T01:29:03.059Z,-0.28
2022-12-20T01:31:31.588Z,-0.25
2022-12-20T01:34:02.678Z,-0.25
2022-12-20T01:36:33.948Z,-0.39
2022-12-20T01:39:04.956Z,-0.48
2022-12-20T01:41:35.540Z,-0.60
2022-12-20T01:44:06.367Z,-0.60
2022-12-20T01:46:36.539Z,-0.59
2022-12-20T01:49:11.018Z,-0.61
2022-12-20T01:51:44.799Z,-0.60
2022-12-20T01:54:18.454Z,-0.64
2022-12-20T01:56:50.980Z,-0.65
2022-12-20T01:59:20.787Z,-0.68
2022-12-20T02:01:50.522Z,-0.69
2022-12-20T02:04:19.245Z,-0.72
2022-12-20T02:06:49.951Z,-0.76
2022-12-20T02:09:18.733Z,-0.81
2022-12-20T02:12:10.584Z,-0.92
2022-12-20T02:14:51.671Z,-0.76
2022-12-20T02:17:33.325Z,-0.70
2022-12-20T02:20:40.721Z,-0.73
2022-12-20T02:23:28.241Z,-0.65
2022-12-20T02:26:12.671Z,-0.66
2022-12-20T02:29:04.212Z,-0.58
2022-12-20T02:31:41.169Z,-0.59
2022-12-20T02:34:12.485Z,-0.53
2022-12-20T02:36:41.801Z,-0.42
2022-12-20T02:39:17.204Z,-0.34
2022-12-20T02:41:53.042Z,-0.35
2022-12-20T02:44:43.277Z,-0.35
2022-12-20T02:47:23.039Z,-0.41
2022-12-20T02:49:55.691Z,-0.38
2022-12-20T02:52:27.537Z,-0.41
2022-12-20T02:54:56.997Z,-0.41
2022-12-20T02:57:31.927Z,-0.54
2022-12-20T03:00:07.146Z,-0.53
2022-12-20T03:02:51.744Z,-0.58
2022-12-20T03:05:23.911Z,-0.60
2022-12-20T03:07:53.610Z,-0.60
2022-12-20T03:10:23.801Z,-0.59
2022-12-20T03:12:52.336Z,-0.61
2022-12-20T03:15:20.920Z,-0.60
2022-12-20T03:17:50.818Z,-0.65
2022-12-20T03:20:26.129Z,-0.69
2022-12-20T03:22:57.290Z,-0.73
2022-12-20T03:25:25.667Z,-0.68
2022-12-20T03:27:54.283Z,-0.64
2022-12-20T03:30:22.542Z,-0.62
2022-12-20T03:32:52.199Z,-0.62
2022-12-20T03:35:20.439Z,-0.65
2022-12-20T03:37:48.964Z,-0.63
2022-12-20T03:40:17.299Z,-0.59
2022-12-20T03:42:45.836Z,-0.56
2022-12-20T03:45:14.640Z,-0.58
2022-12-20T03:47:43.367Z,-0.63
2022-12-20T03:50:13.930Z,-0.57
2022-12-20T03:52:42.639Z,-0.60
2022-12-20T03:55:12.672Z,-0.57
2022-12-20T03:57:42.333Z,-0.64
2022-12-20T04:00:14.002Z,-0.43
2022-12-20T04:02:42.567Z,-0.51
2022-12-20T04:05:12.935Z,-0.66
2022-12-20T04:07:41.292Z,-0.64
2022-12-20T04:10:10.809Z,-0.56
2022-12-20T04:12:39.477Z,-0.57
2022-12-20T04:15:09.418Z,-0.55
2022-12-20T04:17:39.271Z,-0.54
2022-12-20T04:20:20.281Z,-0.60
2022-12-20T04:22:51.759Z,-0.62
2022-12-20T04:25:22.345Z,-0.65
2022-12-20T04:27:51.077Z,-0.61
2022-12-20T04:30:19.772Z,-0.55
2022-12-20T04:32:48.465Z,-0.56
2022-12-20T04:35:16.967Z,-0.51
2022-12-20T04:37:45.954Z,-0.49
2022-12-20T04:40:16.163Z,-0.49
2022-12-20T04:42:44.545Z,-0.57
2022-12-20T04:45:13.579Z,-0.58
2022-12-20T04:47:42.899Z,-0.59
2022-12-20T04:50:11.749Z,-0.62
2022-12-20T04:52:57.550Z,-0.65
2022-12-20T04:55:28.070Z,-0.55
2022-12-20T04:57:59.481Z,-0.59
2022-12-20T05:00:30.920Z,-0.55
2022-12-20T05:02:59.342Z,-0.54
2022-12-20T05:05:28.477Z,-0.46
2022-12-20T05:07:57.250Z,-0.58
2022-12-20T05:10:27.060Z,-0.46
2022-12-20T05:12:55.943Z,-0.44
2022-12-20T05:15:24.731Z,-0.48
2022-12-20T05:17:59.582Z,-0.55
2022-12-20T05:20:28.774Z,-0.53
2022-12-20T05:23:14.806Z,-0.58
2022-12-20T05:26:05.058Z,-0.63
2022-12-20T05:28:35.059Z,-0.61
2022-12-20T05:31:03.998Z,-0.53
2022-12-20T05:33:34.357Z,-0.47
2022-12-20T05:36:03.215Z,-0.41
2022-12-20T05:38:31.581Z,-0.29
2022-12-20T05:41:01.503Z,-0.30
2022-12-20T05:43:30.200Z,-0.43
2022-12-20T05:45:58.942Z,-0.28
2022-12-20T05:48:27.354Z,-0.35
2022-12-20T05:50:58.678Z,-0.36
2022-12-20T05:53:27.983Z,-0.31
2022-12-20T05:55:56.905Z,-0.31
2022-12-20T05:58:26.697Z,-0.29
2022-12-20T06:00:56.703Z,-0.30
2022-12-20T06:03:25.910Z,-0.33
2022-12-20T06:05:54.650Z,-0.32
2022-12-20T06:08:23.956Z,-0.30
2022-12-20T06:10:52.607Z,-0.25
2022-12-20T06:13:21.435Z,-0.18
2022-12-20T06:15:51.162Z,-0.10
2022-12-20T06:18:20.355Z,-0.13
2022-12-20T06:20:52.006Z,-0.20
2022-12-20T06:23:21.094Z,-0.11
2022-12-20T06:25:49.338Z,-0.13
2022-12-20T06:28:21.925Z,-0.05
2022-12-20T06:30:56.015Z,0.02
2022-12-20T06:33:23.911Z,-0.02
2022-12-20T06:35:53.056Z,-0.08
2022-12-20T06:38:21.542Z,-0.01
2022-12-20T06:40:50.201Z,-0.03
2022-12-20T06:43:18.899Z,-0.05
2022-12-20T06:45:47.744Z,0.05
2022-12-20T06:48:21.298Z,-0.01
2022-12-20T06:50:55.615Z,-0.04
2022-12-20T06:53:25.110Z,-0.06
2022-12-20T06:55:53.902Z,0.00
2022-12-20T06:58:22.709Z,0.02
2022-12-20T07:00:51.787Z,-0.04
2022-12-20T07:03:21.647Z,-0.04
2022-12-20T07:05:54.580Z,-0.07
2022-12-20T07:08:23.726Z,-0.17
2022-12-20T07:10:55.196Z,-0.09
2022-12-20T07:13:24.354Z,-0.09
2022-12-20T07:15:59.589Z,-0.08
2022-12-20T07:18:29.295Z,-0.10
2022-12-20T07:21:01.987Z,-0.04
2022-12-20T07:23:30.713Z,-0.02
2022-12-20T07:26:01.577Z,-0.04
2022-12-20T07:28:30.244Z,-0.09
2022-12-20T07:31:06.139Z,0.07
2022-12-20T07:33:37.461Z,0.02
2022-12-20T07:36:07.371Z,0.11
2022-12-20T07:38:36.004Z,0.12
2022-12-20T07:41:10.068Z,0.17
2022-12-20T07:43:39.488Z,0.17
2022-12-20T07:46:09.500Z,0.17
2022-12-20T07:48:40.103Z,0.17
2022-12-20T07:51:11.467Z,0.16
2022-12-20T07:53:45.721Z,0.17
2022-12-20T07:56:15.720Z,0.22
2022-12-20T07:58:45.799Z,0.30
2022-12-20T08:01:15.957Z,0.30
2022-12-20T08:03:54.778Z,0.22
2022-12-20T08:06:24.252Z,0.25
2022-12-20T08:08:57.534Z,0.33
2022-12-20T08:11:27.664Z,0.32
2022-12-20T08:13:58.324Z,0.35
2022-12-20T08:16:27.564Z,0.38
2022-12-20T08:18:58.362Z,0.39
2022-12-20T08:21:27.190Z,0.43
2022-12-20T08:23:57.213Z,0.42
2022-12-20T08:26:25.798Z,0.55
2022-12-20T08:28:54.651Z,0.52
2022-12-20T08:31:24.976Z,0.63
2022-12-20T08:33:57.240Z,0.55
2022-12-20T08:36:26.790Z,0.54
2022-12-20T08:38:55.369Z,0.66
2022-12-20T08:41:24.197Z,0.71
2022-12-20T08:43:53.086Z,0.75
2022-12-20T08:46:22.122Z,0.80
2022-12-20T08:48:50.767Z,0.74
2022-12-20T08:51:20.994Z,0.89
2022-12-20T08:53:50.158Z,0.92
2022-12-20T08:56:20.270Z,0.99
2022-12-20T08:58:49.581Z,0.98
2022-12-20T09:01:21.534Z,0.97
2022-12-20T09:03:50.849Z,1.09
2022-12-20T09:06:25.676Z,1.14
2022-12-20T09:08:55.896Z,1.25
2022-12-20T09:11:26.193Z,1.34
2022-12-20T09:13:56.938Z,1.46
2022-12-20T09:16:31.286Z,1.38
2022-12-20T09:19:05.475Z,1.47
2022-12-20T09:21:37.602Z,1.47
2022-12-20T09:24:07.192Z,1.51
2022-12-20T09:26:37.185Z,1.63
2022-12-20T09:29:08.252Z,1.66
2022-12-20T09:31:39.632Z,1.73
2022-12-20T09:34:08.273Z,1.77
2022-12-20T09:36:39.006Z,1.76
2022-12-20T09:39:09.123Z,1.78
2022-12-20T09:41:41.046Z,1.74
2022-12-20T09:44:17.890Z,1.64
2022-12-20T09:46:50.987Z,1.68
2022-12-20T09:49:21.700Z,1.61
2022-12-20T09:52:17.012Z,1.59
2022-12-20T09:54:54.497Z,1.69
2022-12-20T09:57:30.945Z,1.80
2022-12-20T09:59:59.751Z,1.52
2022-12-20T10:05:40.560Z,1.59
2022-12-20T10:08:22.231Z,1.46
2022-12-20T10:10:56.531Z,1.47
2022-12-20T10:13:44.849Z,1.56
2022-12-20T10:16:29.786Z,1.40
2022-12-20T10:19:16.524Z,1.39
2022-12-20T10:21:54.626Z,1.54
2022-12-20T10:24:30.591Z,1.49
2022-12-20T10:27:04.950Z,1.63
2022-12-20T10:29:34.620Z,1.65
2022-12-20T10:32:04.668Z,1.73
2022-12-20T10:34:38.972Z,1.80
2022-12-20T10:37:13.714Z,1.89
2022-12-20T10:39:45.948Z,2.04
2022-12-20T10:42:34.740Z,2.22
2022-12-20T10:45:04.200Z,2.16
2022-12-20T10:47:40.504Z,2.26
2022-12-20T10:50:17.295Z,2.36
2022-12-20T10:52:47.050Z,2.30
2022-12-20T10:55:38.909Z,2.31
2022-12-20T10:58:14.502Z,2.29
2022-12-20T11:00:45.245Z,2.37
2022-12-20T11:03:19.634Z,2.38
2022-12-20T11:05:56.900Z,2.50
2022-12-20T11:08:51.122Z,2.56
2022-12-20T11:11:22.303Z,2.58
2022-12-20T11:13:51.791Z,2.61
2022-12-20T11:16:32.177Z,2.72
2022-12-20T11:19:44.021Z,2.91
2022-12-20T11:22:24.604Z,3.19
2022-12-20T11:25:05.048Z,3.12
2022-12-20T11:27:46.590Z,3.12
2022-12-20T11:30:21.003Z,2.97
2022-12-20T11:33:23.123Z,3.13
2022-12-20T11:35:57.560Z,3.20
2022-12-20T11:38:38.846Z,3.25
2022-12-20T11:41:18.720Z,3.39
2022-12-20T11:44:26.977Z,3.49
2022-12-20T11:47:20.769Z,3.45
2022-12-20T11:50:15.530Z,3.34
2022-12-20T11:52:52.247Z,3.31
2022-12-20T11:55:27.345Z,3.20
2022-12-20T11:58:18.076Z,2.98
2022-12-20T12:00:55.068Z,2.94
2022-12-20T12:03:31.553Z,2.79
2022-12-20T12:06:03.740Z,2.78
2022-12-20T12:08:41.129Z,2.80
2022-12-20T12:11:56.141Z,2.83
2022-12-20T12:14:21.282Z,2.82
2022-12-20T12:16:55.602Z,2.76
2022-12-20T12:19:29.666Z,2.83
2022-12-20T12:22:02.671Z,2.91
2022-12-20T12:24:39.498Z,2.83
2022-12-20T12:27:18.388Z,2.88
2022-12-20T12:29:47.667Z,2.98
2022-12-20T12:32:22.229Z,2.92
2022-12-20T12:35:06.373Z,2.85
2022-12-20T12:38:06.479Z,2.84
2022-12-20T12:41:14.836Z,3.05
2022-12-20T12:44:07.309Z,3.10
2022-12-20T12:46:40.236Z,3.18
2022-12-20T12:49:18.239Z,3.14
2022-12-20T12:51:55.865Z,3.18
2022-12-20T12:54:27.755Z,3.24
2022-12-20T12:57:03.507Z,3.26
2022-12-20T12:59:52.953Z,3.21
2022-12-20T13:02:42.150Z,3.12
2022-12-20T13:05:38.035Z,3.10
2022-12-20T13:08:18.569Z,3.16
2022-12-20T13:11:14.290Z,3.15
2022-12-20T13:13:42.714Z,2.91
2022-12-20T13:17:10.189Z,2.93
2022-12-20T13:19:20.838Z,2.92
2022-12-20T13:21:57.678Z,2.99
2022-12-20T13:24:39.419Z,3.05
2022-12-20T13:27:33.949Z,3.04
2022-12-20T13:30:28.708Z,3.07
2022-12-20T13:33:16.778Z,3.05
2022-12-20T13:35:58.109Z,3.11
2022-12-20T13:38:52.031Z,3.11
2022-12-20T13:41:35.168Z,3.03
2022-12-20T13:44:32.947Z,2.98
2022-12-20T13:47:07.906Z,2.89
2022-12-20T13:49:40.197Z,2.85
2022-12-20T13:52:18.747Z,2.91
2022-12-20T13:54:52.620Z,2.89
2022-12-20T13:57:27.564Z,2.90
2022-12-20T14:00:05.814Z,2.87
2022-12-20T14:02:42.437Z,2.80
2022-12-20T14:05:20.739Z,2.79
2022-12-20T14:07:57.597Z,2.77
2022-12-20T14:10:30.979Z,2.80
2022-12-20T14:13:01.279Z,2.72
2022-12-20T14:15:33.515Z,2.59
2022-12-20T14:18:08.745Z,2.74
2022-12-20T14:21:00.431Z,2.75
2022-12-20T14:23:38.200Z,2.75
2022-12-20T14:26:15.001Z,2.76
2022-12-20T14:28:49.127Z,2.75
2022-12-20T14:31:28.617Z,2.74
2022-12-20T14:34:07.076Z,2.63
2022-12-20T14:36:37.453Z,2.65
2022-12-20T14:39:26.429Z,2.57
2022-12-20T14:42:01.366Z,2.52
2022-12-20T14:44:33.327Z,2.55
2022-12-20T14:47:18.200Z,2.44
2022-12-20T14:49:52.943Z,2.39
2022-12-20T14:52:27.644Z,2.46
2022-12-20T14:55:10.494Z,2.42
2022-12-20T14:57:47.456Z,2.40
2022-12-20T15:00:25.680Z,2.40
2022-12-20T15:03:03.287Z,2.36
2022-12-20T15:05:49.368Z,2.28
2022-12-20T15:08:20.909Z,2.17
2022-12-20T15:10:53.920Z,2.23
2022-12-20T15:13:27.730Z,2.18
2022-12-20T15:15:57.305Z,2.20
2022-12-20T15:18:27.855Z,2.28
2022-12-20T15:21:03.985Z,2.28
2022-12-20T15:23:34.749Z,2.24
2022-12-20T15:26:04.527Z,2.27
2022-12-20T15:28:37.523Z,2.18
2022-12-20T15:31:06.965Z,2.03
2022-12-20T15:33:40.275Z,1.96
2022-12-20T15:36:16.416Z,1.95
2022-12-20T15:41:37.563Z,1.95
2022-12-20T15:44:14.713Z,2.01
2022-12-20T15:46:45.005Z,2.06
2022-12-20T15:49:17.214Z,1.92
2022-12-20T15:51:49.016Z,1.98
2022-12-20T15:54:26.849Z,2.09
2022-12-20T15:56:58.323Z,2.00
2022-12-20T16:02:24.131Z,1.90
2022-12-20T16:04:57.062Z,1.89
2022-12-20T16:07:26.049Z,1.98
2022-12-20T16:09:57.587Z,1.88
2022-12-20T16:12:28.926Z,1.93
2022-12-20T16:15:04.166Z,1.80
2022-12-20T16:17:33.371Z,1.97
2022-12-20T16:20:01.759Z,1.87
2022-12-20T16:22:33.576Z,1.94
2022-12-20T16:25:05.674Z,1.99
2022-12-20T16:27:34.573Z,1.97
2022-12-20T16:30:05.414Z,1.93
2022-12-20T16:32:35.058Z,1.93
2022-12-20T16:35:08.050Z,1.90
2022-12-20T16:37:39.147Z,1.85
2022-12-20T16:40:09.179Z,1.72
2022-12-20T16:42:37.762Z,1.76
2022-12-20T16:45:15.060Z,1.77
2022-12-20T16:47:43.499Z,1.76
2022-12-20T16:50:12.260Z,1.70
2022-12-20T16:52:40.765Z,1.73
2022-12-20T16:55:15.980Z,1.77
2022-12-20T16:57:44.559Z,1.73
2022-12-20T17:00:23.696Z,1.74
2022-12-20T17:02:52.827Z,1.69
2022-12-20T17:05:28.258Z,1.57
2022-12-20T17:07:57.284Z,1.42
2022-12-20T17:10:27.797Z,1.23
2022-12-20T17:12:57.840Z,1.39
2022-12-20T17:15:32.204Z,1.40
2022-12-20T17:18:01.203Z,1.36
2022-12-20T17:20:36.468Z,1.23
2022-12-20T17:25:54.365Z,1.23
2022-12-20T17:28:25.431Z,1.15
2022-12-20T17:30:57.914Z,1.23
2022-12-20T17:33:31.200Z,1.25
2022-12-20T17:36:00.340Z,1.25
2022-12-20T17:38:30.190Z,1.26
2022-12-20T17:40:59.237Z,1.32
2022-12-20T17:43:28.138Z,1.27
2022-12-20T17:45:58.951Z,1.30
2022-12-20T17:48:32.273Z,1.26
2022-12-20T17:51:03.503Z,1.22
2022-12-20T17:53:32.196Z,1.14
2022-12-20T17:56:00.997Z,1.18
2022-12-20T17:58:29.473Z,1.25
2022-12-20T18:00:59.557Z,1.05
2022-12-20T18:04:02.218Z,1.08
2022-12-20T18:06:16.622Z,1.07
2022-12-20T18:08:46.280Z,1.13
2022-12-20T18:11:16.335Z,1.06
2022-12-20T18:13:45.270Z,1.17
2022-12-20T18:16:17.808Z,1.18
2022-12-20T18:18:46.635Z,1.22
2022-12-20T18:21:31.246Z,1.30
2022-12-20T18:24:01.792Z,1.30
2022-12-20T18:26:32.512Z,1.27
2022-12-20T18:29:03.614Z,1.41
2022-12-20T18:31:37.289Z,1.42
2022-12-20T18:34:06.708Z,1.40
2022-12-20T18:36:37.314Z,1.39
2022-12-20T18:39:08.403Z,1.30
2022-12-20T18:41:40.064Z,1.37
2022-12-20T18:44:09.441Z,1.44
2022-12-20T18:46:41.405Z,1.47
2022-12-20T18:49:11.371Z,1.47
2022-12-20T18:51:41.049Z,1.53
2022-12-20T18:54:12.881Z,1.61
2022-12-20T18:56:42.642Z,1.59
2022-12-20T18:59:13.116Z,1.51
2022-12-20T19:01:45.522Z,1.50
2022-12-20T19:04:19.328Z,1.40
2022-12-20T19:06:51.556Z,1.52
2022-12-20T19:09:20.503Z,1.46
2022-12-20T19:11:56.244Z,1.50
2022-12-20T19:14:26.967Z,1.46
2022-12-20T19:16:58.467Z,1.55
2022-12-20T19:19:27.502Z,1.47
2022-12-20T19:21:56.840Z,1.32
2022-12-20T19:24:26.639Z,1.34
2022-12-20T19:26:55.588Z,1.49
2022-12-20T19:29:25.084Z,1.52
2022-12-20T19:31:56.024Z,1.52
2022-12-20T19:34:30.457Z,1.52
2022-12-20T19:37:01.224Z,1.56
2022-12-20T19:39:32.075Z,1.64
2022-12-20T19:42:23.445Z,1.63
2022-12-20T19:44:52.297Z,1.75
2022-12-20T19:47:22.155Z,1.71
2022-12-20T19:49:53.953Z,1.68
2022-12-20T19:52:28.248Z,1.87
2022-12-20T19:54:57.965Z,1.76
2022-12-20T19:57:30.525Z,1.84
2022-12-20T19:59:59.571Z,1.84
2022-12-20T20:02:30.364Z,1.86
2022-12-20T20:05:01.861Z,1.81
2022-12-20T20:07:34.437Z,1.80
2022-12-20T20:10:06.556Z,1.79
2022-12-20T20:12:39.495Z,1.84
2022-12-20T20:15:13.374Z,1.87
2022-12-20T20:17:42.132Z,1.83
2022-12-20T20:20:14.574Z,1.80
2022-12-20T20:22:43.841Z,1.75
2022-12-20T20:25:15.435Z,1.75
2022-12-20T20:27:45.138Z,1.71
2022-12-20T20:30:17.197Z,1.68
2022-12-20T20:32:46.504Z,1.70
2022-12-20T20:35:18.266Z,1.55
2022-12-20T20:37:48.077Z,1.75
2022-12-20T20:40:17.283Z,1.84
2022-12-20T20:42:48.177Z,1.72
2022-12-20T20:45:20.081Z,1.76
2022-12-20T20:47:48.964Z,1.63
2022-12-20T20:50:19.224Z,1.62
2022-12-20T20:52:47.846Z,1.56
2022-12-20T20:55:18.242Z,1.62
2022-12-20T20:57:48.009Z,1.59
2022-12-20T21:00:17.251Z,1.56
2022-12-20T21:02:46.181Z,1.60
2022-12-20T21:08:06.363Z,1.56
2022-12-20T21:10:37.804Z,1.55
2022-12-20T21:13:07.172Z,1.50
2022-12-20T21:15:37.513Z,1.53
2022-12-20T21:18:09.384Z,1.53
2022-12-20T21:20:39.199Z,1.58
2022-12-20T21:23:09.917Z,1.54
2022-12-20T21:25:40.527Z,1.56
2022-12-20T21:28:10.179Z,1.46
2022-12-20T21:30:39.270Z,1.46
2022-12-20T21:33:08.891Z,1.57
2022-12-20T21:35:39.095Z,1.54
2022-12-20T21:38:10.577Z,1.49
2022-12-20T21:40:39.770Z,1.56
2022-12-20T21:43:08.349Z,1.57
2022-12-20T21:45:37.246Z,1.56
2022-12-20T21:48:09.099Z,1.54
2022-12-20T21:50:38.644Z,1.61
2022-12-20T21:53:12.861Z,1.60
2022-12-20T21:55:46.443Z,1.61
2022-12-20T21:58:15.983Z,1.70
2022-12-20T22:00:50.891Z,1.68
2022-12-20T22:03:23.778Z,1.62
2022-12-20T22:05:54.098Z,1.61
2022-12-20T22:08:25.830Z,1.63
2022-12-20T22:11:00.582Z,1.64
2022-12-20T22:13:28.996Z,1.65
2022-12-20T22:15:57.949Z,1.60
2022-12-20T22:18:26.790Z,1.58
2022-12-20T22:20:55.263Z,1.47
2022-12-20T22:23:25.487Z,1.54
2022-12-20T22:25:54.674Z,1.41
2022-12-20T22:28:24.397Z,1.57
2022-12-20T22:30:54.253Z,1.57
2022-12-20T22:33:23.893Z,1.58
2022-12-20T22:35:52.186Z,1.56
2022-12-20T22:38:21.324Z,1.64
2022-12-20T22:40:52.134Z,1.69
2022-12-20T22:43:20.518Z,1.66
2022-12-20T22:45:59.107Z,1.52
2022-12-20T22:48:28.689Z,1.62
2022-12-20T22:51:00.944Z,1.65
2022-12-20T22:53:30.022Z,1.68
2022-12-20T22:56:00.225Z,1.62
2022-12-20T22:58:29.363Z,1.71
2022-12-20T23:00:57.889Z,1.67
2022-12-20T23:03:27.008Z,1.59
2022-12-20T23:05:58.108Z,1.63
2022-12-20T23:08:28.226Z,1.69
2022-12-20T23:11:14.164Z,1.74
2022-12-20T23:14:01.802Z,1.71
2022-12-20T23:16:32.108Z,1.74
2022-12-20T23:19:02.230Z,1.65
2022-12-20T23:21:48.808Z,1.69
2022-12-20T23:24:17.874Z,1.65
2022-12-20T23:26:46.553Z,1.49
2022-12-20T23:29:17.739Z,1.58
2022-12-20T23:31:46.470Z,1.61
2022-12-20T23:34:15.866Z,1.60
2022-12-20T23:37:02.195Z,1.57
2022-12-20T23:39:30.800Z,1.54
2022-12-20T23:42:01.034Z,1.62
2022-12-20T23:44:31.327Z,1.58
2022-12-20T23:46:59.893Z,1.60
2022-12-20T23:49:28.108Z,1.60
2022-12-20T23:51:57.627Z,1.61
2022-12-20T23:54:26.402Z,1.64
2022-12-20T23:56:54.976Z,1.62
2022-12-20T23:59:23.759Z,1.72
